sensor_id;sensor_type;location;lat;lon;timestamp;temperature;humidity
28773;DHT22;15925;51.222;5.678;2022-07-29T00:00:04;19.80;99.40
28773;DHT22;15925;51.222;5.678;2022-07-29T00:02:32;19.80;99.40
28773;DHT22;15925;51.222;5.678;2022-07-29T00:04:58;19.70;99.50
28773;DHT22;15925;51.222;5.678;2022-07-29T00:07:24;19.70;99.50
28773;DHT22;15925;51.222;5.678;2022-07-29T00:09:50;19.70;99.50
28773;DHT22;15925;51.222;5.678;2022-07-29T00:12:16;19.70;99.50
28773;DHT22;15925;51.222;5.678;2022-07-29T00:14:42;19.70;99.60
28773;DHT22;15925;51.222;5.678;2022-07-29T00:17:07;19.60;99.80
28773;DHT22;15925;51.222;5.678;2022-07-29T00:19:33;19.40;99.90
28773;DHT22;15925;51.222;5.678;2022-07-29T00:22:00;18.90;99.90
28773;DHT22;15925;51.222;5.678;2022-07-29T00:24:26;18.70;99.90
28773;DHT22;15925;51.222;5.678;2022-07-29T00:26:52;17.70;99.90
28773;DHT22;15925;51.222;5.678;2022-07-29T00:29:18;17.20;99.90
28773;DHT22;15925;51.222;5.678;2022-07-29T00:31:44;17.10;99.90
28773;DHT22;15925;51.222;5.678;2022-07-29T00:34:09;17.00;99.90
28773;DHT22;15925;51.222;5.678;2022-07-29T00:36:55;16.80;99.90
28773;DHT22;15925;51.222;5.678;2022-07-29T00:39:21;16.80;99.90
28773;DHT22;15925;51.222;5.678;2022-07-29T00:41:47;16.90;99.90
28773;DHT22;15925;51.222;5.678;2022-07-29T00:44:14;17.10;99.90
28773;DHT22;15925;51.222;5.678;2022-07-29T00:46:39;17.30;99.90
28773;DHT22;15925;51.222;5.678;2022-07-29T00:49:05;17.40;99.90
28773;DHT22;15925;51.222;5.678;2022-07-29T00:51:35;17.30;99.90
28773;DHT22;15925;51.222;5.678;2022-07-29T00:54:02;17.40;99.90
28773;DHT22;15925;51.222;5.678;2022-07-29T00:56:30;17.40;99.90
28773;DHT22;15925;51.222;5.678;2022-07-29T00:58:57;17.40;99.90
28773;DHT22;15925;51.222;5.678;2022-07-29T01:01:23;17.30;99.90
28773;DHT22;15925;51.222;5.678;2022-07-29T01:03:49;17.40;99.90
28773;DHT22;15925;51.222;5.678;2022-07-29T01:06:17;17.40;99.90
28773;DHT22;15925;51.222;5.678;2022-07-29T01:08:47;17.50;99.90
28773;DHT22;15925;51.222;5.678;2022-07-29T01:11:14;17.70;99.90
28773;DHT22;15925;51.222;5.678;2022-07-29T01:13:41;17.70;99.90
28773;DHT22;15925;51.222;5.678;2022-07-29T01:16:18;17.80;99.90
28773;DHT22;15925;51.222;5.678;2022-07-29T01:18:47;17.90;99.90
28773;DHT22;15925;51.222;5.678;2022-07-29T01:21:50;17.90;99.90
28773;DHT22;15925;51.222;5.678;2022-07-29T01:30:05;17.50;99.90
28773;DHT22;15925;51.222;5.678;2022-07-29T01:32:33;17.10;99.90
28773;DHT22;15925;51.222;5.678;2022-07-29T01:35:03;17.10;99.90
28773;DHT22;15925;51.222;5.678;2022-07-29T01:37:48;17.30;99.90
28773;DHT22;15925;51.222;5.678;2022-07-29T01:40:45;17.50;99.90
28773;DHT22;15925;51.222;5.678;2022-07-29T01:43:27;17.60;99.90
28773;DHT22;15925;51.222;5.678;2022-07-29T01:46:00;17.60;99.90
28773;DHT22;15925;51.222;5.678;2022-07-29T01:48:34;17.80;99.90
28773;DHT22;15925;51.222;5.678;2022-07-29T01:51:07;17.30;99.90
28773;DHT22;15925;51.222;5.678;2022-07-29T01:53:42;16.90;99.90
28773;DHT22;15925;51.222;5.678;2022-07-29T01:56:12;16.80;99.90
28773;DHT22;15925;51.222;5.678;2022-07-29T01:58:41;17.00;99.90
28773;DHT22;15925;51.222;5.678;2022-07-29T02:04:57;17.10;99.90
28773;DHT22;15925;51.222;5.678;2022-07-29T02:07:25;17.00;99.90
28773;DHT22;15925;51.222;5.678;2022-07-29T02:09:53;17.20;99.90
28773;DHT22;15925;51.222;5.678;2022-07-29T02:12:20;17.20;99.90
28773;DHT22;15925;51.222;5.678;2022-07-29T02:14:50;17.10;99.90
28773;DHT22;15925;51.222;5.678;2022-07-29T02:17:22;17.20;99.90
28773;DHT22;15925;51.222;5.678;2022-07-29T02:19:50;17.40;99.90
28773;DHT22;15925;51.222;5.678;2022-07-29T02:22:18;17.50;99.90
28773;DHT22;15925;51.222;5.678;2022-07-29T02:24:46;17.30;99.90
28773;DHT22;15925;51.222;5.678;2022-07-29T02:27:14;16.90;99.90
28773;DHT22;15925;51.222;5.678;2022-07-29T02:29:40;17.00;99.90
28773;DHT22;15925;51.222;5.678;2022-07-29T02:32:07;17.20;99.90
28773;DHT22;15925;51.222;5.678;2022-07-29T02:34:35;17.40;99.90
28773;DHT22;15925;51.222;5.678;2022-07-29T02:37:03;17.50;99.90
28773;DHT22;15925;51.222;5.678;2022-07-29T02:39:30;17.50;99.90
28773;DHT22;15925;51.222;5.678;2022-07-29T02:42:09;17.40;99.90
28773;DHT22;15925;51.222;5.678;2022-07-29T02:44:35;17.50;99.90
28773;DHT22;15925;51.222;5.678;2022-07-29T02:50:00;17.60;99.90
28773;DHT22;15925;51.222;5.678;2022-07-29T02:55:29;17.70;99.90
28773;DHT22;15925;51.222;5.678;2022-07-29T03:01:03;17.20;99.90
28773;DHT22;15925;51.222;5.678;2022-07-29T03:03:32;17.00;99.90
28773;DHT22;15925;51.222;5.678;2022-07-29T03:06:01;16.70;99.90
28773;DHT22;15925;51.222;5.678;2022-07-29T03:08:27;16.70;99.90
28773;DHT22;15925;51.222;5.678;2022-07-29T03:10:53;16.90;99.90
28773;DHT22;15925;51.222;5.678;2022-07-29T03:13:20;17.10;99.90
28773;DHT22;15925;51.222;5.678;2022-07-29T03:15:47;17.20;99.90
28773;DHT22;15925;51.222;5.678;2022-07-29T03:18:14;17.20;99.90
28773;DHT22;15925;51.222;5.678;2022-07-29T03:20:40;17.30;99.90
28773;DHT22;15925;51.222;5.678;2022-07-29T03:23:08;17.30;99.90
28773;DHT22;15925;51.222;5.678;2022-07-29T03:25:34;17.10;99.90
28773;DHT22;15925;51.222;5.678;2022-07-29T03:27:59;17.10;99.90
28773;DHT22;15925;51.222;5.678;2022-07-29T03:30:25;17.10;99.90
28773;DHT22;15925;51.222;5.678;2022-07-29T03:32:51;17.20;99.90
28773;DHT22;15925;51.222;5.678;2022-07-29T03:35:20;17.30;99.90
28773;DHT22;15925;51.222;5.678;2022-07-29T03:37:46;17.40;99.90
28773;DHT22;15925;51.222;5.678;2022-07-29T03:40:18;17.20;99.90
28773;DHT22;15925;51.222;5.678;2022-07-29T03:42:45;17.20;99.90
28773;DHT22;15925;51.222;5.678;2022-07-29T03:45:15;17.30;99.90
28773;DHT22;15925;51.222;5.678;2022-07-29T03:47:46;16.80;99.90
28773;DHT22;15925;51.222;5.678;2022-07-29T03:50:14;16.70;99.90
28773;DHT22;15925;51.222;5.678;2022-07-29T03:52:41;16.80;99.90
28773;DHT22;15925;51.222;5.678;2022-07-29T03:55:08;17.00;99.90
28773;DHT22;15925;51.222;5.678;2022-07-29T03:57:34;17.20;99.90
28773;DHT22;15925;51.222;5.678;2022-07-29T04:00:03;17.10;99.90
28773;DHT22;15925;51.222;5.678;2022-07-29T04:02:31;17.20;99.90
28773;DHT22;15925;51.222;5.678;2022-07-29T04:04:58;17.10;99.90
28773;DHT22;15925;51.222;5.678;2022-07-29T04:07:24;17.00;99.90
28773;DHT22;15925;51.222;5.678;2022-07-29T04:09:50;16.90;99.90
28773;DHT22;15925;51.222;5.678;2022-07-29T04:12:16;16.80;99.90
28773;DHT22;15925;51.222;5.678;2022-07-29T04:14:42;16.90;99.90
28773;DHT22;15925;51.222;5.678;2022-07-29T04:17:08;16.90;99.90
28773;DHT22;15925;51.222;5.678;2022-07-29T04:19:33;17.10;99.90
28773;DHT22;15925;51.222;5.678;2022-07-29T04:22:00;17.20;99.90
28773;DHT22;15925;51.222;5.678;2022-07-29T04:24:26;17.20;99.90
28773;DHT22;15925;51.222;5.678;2022-07-29T04:26:53;17.30;99.90
28773;DHT22;15925;51.222;5.678;2022-07-29T04:29:19;17.30;99.90
28773;DHT22;15925;51.222;5.678;2022-07-29T04:31:45;17.30;99.90
28773;DHT22;15925;51.222;5.678;2022-07-29T04:34:11;17.20;99.90
28773;DHT22;15925;51.222;5.678;2022-07-29T04:36:37;17.10;99.90
28773;DHT22;15925;51.222;5.678;2022-07-29T04:39:04;17.30;99.90
28773;DHT22;15925;51.222;5.678;2022-07-29T04:41:30;17.40;99.90
28773;DHT22;15925;51.222;5.678;2022-07-29T04:43:56;17.40;99.90
28773;DHT22;15925;51.222;5.678;2022-07-29T04:46:22;17.50;99.90
28773;DHT22;15925;51.222;5.678;2022-07-29T04:48:48;17.50;99.90
28773;DHT22;15925;51.222;5.678;2022-07-29T04:51:15;17.40;99.90
28773;DHT22;15925;51.222;5.678;2022-07-29T04:53:40;17.50;99.90
28773;DHT22;15925;51.222;5.678;2022-07-29T04:56:06;17.50;99.90
28773;DHT22;15925;51.222;5.678;2022-07-29T04:58:34;17.30;99.90
28773;DHT22;15925;51.222;5.678;2022-07-29T05:01:00;17.20;99.90
28773;DHT22;15925;51.222;5.678;2022-07-29T05:03:26;17.30;99.90
28773;DHT22;15925;51.222;5.678;2022-07-29T05:05:52;17.30;99.90
28773;DHT22;15925;51.222;5.678;2022-07-29T05:08:17;17.30;99.90
28773;DHT22;15925;51.222;5.678;2022-07-29T05:10:43;17.40;99.90
28773;DHT22;15925;51.222;5.678;2022-07-29T05:13:09;17.40;99.90
28773;DHT22;15925;51.222;5.678;2022-07-29T05:15:35;17.40;99.90
28773;DHT22;15925;51.222;5.678;2022-07-29T05:18:02;17.30;99.90
28773;DHT22;15925;51.222;5.678;2022-07-29T05:20:28;17.40;99.90
28773;DHT22;15925;51.222;5.678;2022-07-29T05:22:56;17.40;99.90
28773;DHT22;15925;51.222;5.678;2022-07-29T05:25:24;17.40;99.90
28773;DHT22;15925;51.222;5.678;2022-07-29T05:27:50;17.40;99.90
28773;DHT22;15925;51.222;5.678;2022-07-29T05:30:16;17.50;99.90
28773;DHT22;15925;51.222;5.678;2022-07-29T05:32:41;17.50;99.90
28773;DHT22;15925;51.222;5.678;2022-07-29T05:35:08;17.50;99.90
28773;DHT22;15925;51.222;5.678;2022-07-29T05:37:34;17.30;99.90
28773;DHT22;15925;51.222;5.678;2022-07-29T05:39:59;17.00;99.90
28773;DHT22;15925;51.222;5.678;2022-07-29T05:42:25;17.00;99.90
28773;DHT22;15925;51.222;5.678;2022-07-29T05:44:53;16.70;99.90
28773;DHT22;15925;51.222;5.678;2022-07-29T05:47:19;16.60;99.90
28773;DHT22;15925;51.222;5.678;2022-07-29T05:49:45;16.70;99.90
28773;DHT22;15925;51.222;5.678;2022-07-29T05:52:11;16.80;99.90
28773;DHT22;15925;51.222;5.678;2022-07-29T05:54:38;16.90;99.90
28773;DHT22;15925;51.222;5.678;2022-07-29T05:57:05;16.80;99.90
28773;DHT22;15925;51.222;5.678;2022-07-29T05:59:35;16.90;99.90
28773;DHT22;15925;51.222;5.678;2022-07-29T06:02:00;17.10;99.90
28773;DHT22;15925;51.222;5.678;2022-07-29T06:04:26;17.10;99.90
28773;DHT22;15925;51.222;5.678;2022-07-29T06:06:52;16.80;99.90
28773;DHT22;15925;51.222;5.678;2022-07-29T06:09:18;16.70;99.90
28773;DHT22;15925;51.222;5.678;2022-07-29T06:11:44;16.60;99.90
28773;DHT22;15925;51.222;5.678;2022-07-29T06:14:09;16.40;99.90
28773;DHT22;15925;51.222;5.678;2022-07-29T06:16:35;16.20;99.90
28773;DHT22;15925;51.222;5.678;2022-07-29T06:19:01;16.20;99.90
28773;DHT22;15925;51.222;5.678;2022-07-29T06:21:27;16.20;99.90
28773;DHT22;15925;51.222;5.678;2022-07-29T06:23:52;16.40;99.90
28773;DHT22;15925;51.222;5.678;2022-07-29T06:26:18;16.30;99.90
28773;DHT22;15925;51.222;5.678;2022-07-29T06:28:44;16.40;99.90
28773;DHT22;15925;51.222;5.678;2022-07-29T06:31:10;16.40;99.90
28773;DHT22;15925;51.222;5.678;2022-07-29T06:33:36;16.40;99.90
28773;DHT22;15925;51.222;5.678;2022-07-29T06:36:04;16.40;99.90
28773;DHT22;15925;51.222;5.678;2022-07-29T06:38:30;16.30;99.90
28773;DHT22;15925;51.222;5.678;2022-07-29T06:40:56;16.50;99.90
28773;DHT22;15925;51.222;5.678;2022-07-29T06:43:26;16.50;99.90
28773;DHT22;15925;51.222;5.678;2022-07-29T06:45:52;16.50;99.90
28773;DHT22;15925;51.222;5.678;2022-07-29T06:48:18;16.50;99.90
28773;DHT22;15925;51.222;5.678;2022-07-29T06:50:44;16.40;99.90
28773;DHT22;15925;51.222;5.678;2022-07-29T06:53:10;16.40;99.90
28773;DHT22;15925;51.222;5.678;2022-07-29T06:55:36;16.60;99.90
28773;DHT22;15925;51.222;5.678;2022-07-29T06:58:02;16.80;99.90
28773;DHT22;15925;51.222;5.678;2022-07-29T07:00:28;16.70;99.90
28773;DHT22;15925;51.222;5.678;2022-07-29T07:02:54;16.60;99.90
28773;DHT22;15925;51.222;5.678;2022-07-29T07:05:20;16.80;99.90
28773;DHT22;15925;51.222;5.678;2022-07-29T07:07:45;16.80;99.90
28773;DHT22;15925;51.222;5.678;2022-07-29T07:10:11;17.00;99.90
28773;DHT22;15925;51.222;5.678;2022-07-29T07:12:37;17.10;99.90
28773;DHT22;15925;51.222;5.678;2022-07-29T07:15:03;17.00;99.90
28773;DHT22;15925;51.222;5.678;2022-07-29T07:17:29;17.00;99.90
28773;DHT22;15925;51.222;5.678;2022-07-29T07:19:55;17.20;99.90
28773;DHT22;15925;51.222;5.678;2022-07-29T07:22:21;17.10;99.90
28773;DHT22;15925;51.222;5.678;2022-07-29T07:24:46;17.00;99.90
28773;DHT22;15925;51.222;5.678;2022-07-29T07:27:12;17.20;99.90
28773;DHT22;15925;51.222;5.678;2022-07-29T07:29:38;17.30;99.90
28773;DHT22;15925;51.222;5.678;2022-07-29T07:32:07;17.30;99.90
28773;DHT22;15925;51.222;5.678;2022-07-29T07:34:33;17.20;99.90
28773;DHT22;15925;51.222;5.678;2022-07-29T07:36:59;17.30;99.90
28773;DHT22;15925;51.222;5.678;2022-07-29T07:39:25;17.40;99.90
28773;DHT22;15925;51.222;5.678;2022-07-29T07:41:51;17.50;99.90
28773;DHT22;15925;51.222;5.678;2022-07-29T07:44:17;17.50;99.90
28773;DHT22;15925;51.222;5.678;2022-07-29T07:46:43;17.50;99.90
28773;DHT22;15925;51.222;5.678;2022-07-29T07:49:10;17.60;99.90
28773;DHT22;15925;51.222;5.678;2022-07-29T07:51:36;17.60;99.90
28773;DHT22;15925;51.222;5.678;2022-07-29T07:54:02;17.70;99.90
28773;DHT22;15925;51.222;5.678;2022-07-29T07:56:28;17.70;99.90
28773;DHT22;15925;51.222;5.678;2022-07-29T07:58:53;17.50;99.90
28773;DHT22;15925;51.222;5.678;2022-07-29T08:01:19;17.50;99.90
28773;DHT22;15925;51.222;5.678;2022-07-29T08:03:51;17.40;99.90
28773;DHT22;15925;51.222;5.678;2022-07-29T08:06:17;17.40;99.90
28773;DHT22;15925;51.222;5.678;2022-07-29T08:08:43;17.40;99.90
28773;DHT22;15925;51.222;5.678;2022-07-29T08:11:09;17.50;99.90
28773;DHT22;15925;51.222;5.678;2022-07-29T08:13:36;17.70;99.90
28773;DHT22;15925;51.222;5.678;2022-07-29T08:16:02;17.70;99.90
28773;DHT22;15925;51.222;5.678;2022-07-29T08:18:37;17.70;99.90
28773;DHT22;15925;51.222;5.678;2022-07-29T08:21:03;17.90;99.90
28773;DHT22;15925;51.222;5.678;2022-07-29T08:23:29;18.00;99.90
28773;DHT22;15925;51.222;5.678;2022-07-29T08:26:08;18.00;99.90
28773;DHT22;15925;51.222;5.678;2022-07-29T08:28:38;18.10;99.90
28773;DHT22;15925;51.222;5.678;2022-07-29T08:31:04;18.20;99.90
28773;DHT22;15925;51.222;5.678;2022-07-29T08:33:30;18.40;99.90
28773;DHT22;15925;51.222;5.678;2022-07-29T08:35:56;18.40;99.90
28773;DHT22;15925;51.222;5.678;2022-07-29T08:38:22;18.50;99.90
28773;DHT22;15925;51.222;5.678;2022-07-29T08:40:48;18.50;99.90
28773;DHT22;15925;51.222;5.678;2022-07-29T08:43:14;18.60;99.90
28773;DHT22;15925;51.222;5.678;2022-07-29T08:45:50;18.70;99.90
28773;DHT22;15925;51.222;5.678;2022-07-29T08:48:19;18.80;99.90
28773;DHT22;15925;51.222;5.678;2022-07-29T08:50:47;18.90;99.90
28773;DHT22;15925;51.222;5.678;2022-07-29T08:53:17;19.00;99.90
28773;DHT22;15925;51.222;5.678;2022-07-29T08:55:45;19.10;99.90
28773;DHT22;15925;51.222;5.678;2022-07-29T08:58:12;19.20;99.90
28773;DHT22;15925;51.222;5.678;2022-07-29T09:00:43;19.30;99.90
28773;DHT22;15925;51.222;5.678;2022-07-29T09:03:12;19.40;99.90
28773;DHT22;15925;51.222;5.678;2022-07-29T09:05:45;19.40;99.90
28773;DHT22;15925;51.222;5.678;2022-07-29T09:08:15;19.50;99.90
28773;DHT22;15925;51.222;5.678;2022-07-29T09:10:42;19.60;99.90
28773;DHT22;15925;51.222;5.678;2022-07-29T09:13:07;19.80;99.90
28773;DHT22;15925;51.222;5.678;2022-07-29T09:15:34;19.80;99.90
28773;DHT22;15925;51.222;5.678;2022-07-29T09:17:59;19.90;99.90
28773;DHT22;15925;51.222;5.678;2022-07-29T09:20:26;20.00;99.90
28773;DHT22;15925;51.222;5.678;2022-07-29T09:23:13;20.10;99.90
28773;DHT22;15925;51.222;5.678;2022-07-29T09:25:40;20.20;99.90
28773;DHT22;15925;51.222;5.678;2022-07-29T09:28:14;20.30;99.90
28773;DHT22;15925;51.222;5.678;2022-07-29T09:30:54;20.30;99.90
28773;DHT22;15925;51.222;5.678;2022-07-29T09:33:23;20.40;99.90
28773;DHT22;15925;51.222;5.678;2022-07-29T09:36:18;20.50;99.90
28773;DHT22;15925;51.222;5.678;2022-07-29T09:39:00;20.60;99.90
28773;DHT22;15925;51.222;5.678;2022-07-29T09:41:27;20.70;99.90
28773;DHT22;15925;51.222;5.678;2022-07-29T09:43:57;20.90;99.90
28773;DHT22;15925;51.222;5.678;2022-07-29T09:46:24;21.00;99.90
28773;DHT22;15925;51.222;5.678;2022-07-29T09:49:07;21.10;99.90
28773;DHT22;15925;51.222;5.678;2022-07-29T09:51:35;21.10;99.90
28773;DHT22;15925;51.222;5.678;2022-07-29T09:54:01;21.20;99.90
28773;DHT22;15925;51.222;5.678;2022-07-29T09:56:40;21.40;99.90
28773;DHT22;15925;51.222;5.678;2022-07-29T09:59:07;21.40;99.90
28773;DHT22;15925;51.222;5.678;2022-07-29T10:01:34;21.60;99.90
28773;DHT22;15925;51.222;5.678;2022-07-29T10:04:02;21.70;99.90
28773;DHT22;15925;51.222;5.678;2022-07-29T10:06:28;21.70;99.90
28773;DHT22;15925;51.222;5.678;2022-07-29T10:08:54;21.80;99.90
28773;DHT22;15925;51.222;5.678;2022-07-29T10:11:20;21.90;99.90
28773;DHT22;15925;51.222;5.678;2022-07-29T10:13:47;22.00;99.90
28773;DHT22;15925;51.222;5.678;2022-07-29T10:16:14;22.00;99.90
28773;DHT22;15925;51.222;5.678;2022-07-29T10:18:42;22.10;99.90
28773;DHT22;15925;51.222;5.678;2022-07-29T10:21:09;22.30;99.90
28773;DHT22;15925;51.222;5.678;2022-07-29T10:23:36;22.40;99.90
28773;DHT22;15925;51.222;5.678;2022-07-29T10:26:03;22.40;99.90
28773;DHT22;15925;51.222;5.678;2022-07-29T10:28:30;22.40;99.90
28773;DHT22;15925;51.222;5.678;2022-07-29T10:31:01;22.60;99.90
28773;DHT22;15925;51.222;5.678;2022-07-29T10:36:32;22.80;99.90
28773;DHT22;15925;51.222;5.678;2022-07-29T10:42:27;22.80;99.90
28773;DHT22;15925;51.222;5.678;2022-07-29T10:44:55;22.80;99.90
28773;DHT22;15925;51.222;5.678;2022-07-29T10:49:58;22.90;99.90
28773;DHT22;15925;51.222;5.678;2022-07-29T10:52:24;23.10;99.90
28773;DHT22;15925;51.222;5.678;2022-07-29T10:54:53;23.30;99.90
28773;DHT22;15925;51.222;5.678;2022-07-29T10:57:27;23.40;99.90
28773;DHT22;15925;51.222;5.678;2022-07-29T11:05:18;23.50;99.90
28773;DHT22;15925;51.222;5.678;2022-07-29T11:10:39;23.80;99.90
28773;DHT22;15925;51.222;5.678;2022-07-29T11:13:05;23.80;99.90
28773;DHT22;15925;51.222;5.678;2022-07-29T11:15:57;23.90;99.90
28773;DHT22;15925;51.222;5.678;2022-07-29T11:18:23;23.90;99.90
28773;DHT22;15925;51.222;5.678;2022-07-29T11:20:49;24.00;99.90
28773;DHT22;15925;51.222;5.678;2022-07-29T11:26:12;24.10;99.90
28773;DHT22;15925;51.222;5.678;2022-07-29T11:28:34;24.20;99.90
28773;DHT22;15925;51.222;5.678;2022-07-29T11:31:01;24.10;99.90
28773;DHT22;15925;51.222;5.678;2022-07-29T11:33:29;24.30;99.90
28773;DHT22;15925;51.222;5.678;2022-07-29T11:38:35;24.40;99.90
28773;DHT22;15925;51.222;5.678;2022-07-29T11:41:20;24.60;99.90
28773;DHT22;15925;51.222;5.678;2022-07-29T11:43:59;24.60;99.90
28773;DHT22;15925;51.222;5.678;2022-07-29T11:46:45;24.60;99.90
28773;DHT22;15925;51.222;5.678;2022-07-29T11:49:24;24.70;99.90
28773;DHT22;15925;51.222;5.678;2022-07-29T11:51:54;24.70;99.90
28773;DHT22;15925;51.222;5.678;2022-07-29T11:54:25;24.80;99.90
28773;DHT22;15925;51.222;5.678;2022-07-29T11:56:52;24.80;99.90
28773;DHT22;15925;51.222;5.678;2022-07-29T11:59:19;24.90;99.90
28773;DHT22;15925;51.222;5.678;2022-07-29T12:01:58;24.80;99.90
28773;DHT22;15925;51.222;5.678;2022-07-29T12:04:25;24.90;99.90
28773;DHT22;15925;51.222;5.678;2022-07-29T12:06:55;25.00;99.90
28773;DHT22;15925;51.222;5.678;2022-07-29T12:09:22;25.00;99.90
28773;DHT22;15925;51.222;5.678;2022-07-29T12:11:49;25.00;99.90
28773;DHT22;15925;51.222;5.678;2022-07-29T12:14:31;25.00;99.90
28773;DHT22;15925;51.222;5.678;2022-07-29T12:16:59;25.20;99.90
28773;DHT22;15925;51.222;5.678;2022-07-29T12:19:26;25.20;99.90
28773;DHT22;15925;51.222;5.678;2022-07-29T12:21:53;25.30;99.90
28773;DHT22;15925;51.222;5.678;2022-07-29T12:24:24;25.30;99.90
28773;DHT22;15925;51.222;5.678;2022-07-29T12:26:55;25.30;99.90
28773;DHT22;15925;51.222;5.678;2022-07-29T12:29:21;25.40;99.90
28773;DHT22;15925;51.222;5.678;2022-07-29T12:31:52;25.30;99.90
28773;DHT22;15925;51.222;5.678;2022-07-29T12:34:22;25.30;99.90
28773;DHT22;15925;51.222;5.678;2022-07-29T12:36:48;25.40;99.90
28773;DHT22;15925;51.222;5.678;2022-07-29T12:39:16;25.40;99.90
28773;DHT22;15925;51.222;5.678;2022-07-29T12:41:43;25.50;99.90
28773;DHT22;15925;51.222;5.678;2022-07-29T12:44:09;25.60;99.90
28773;DHT22;15925;51.222;5.678;2022-07-29T12:46:35;25.70;99.90
28773;DHT22;15925;51.222;5.678;2022-07-29T12:49:01;25.80;99.90
28773;DHT22;15925;51.222;5.678;2022-07-29T12:51:37;25.80;99.90
28773;DHT22;15925;51.222;5.678;2022-07-29T12:54:10;25.90;99.90
28773;DHT22;15925;51.222;5.678;2022-07-29T12:56:37;25.90;99.90
28773;DHT22;15925;51.222;5.678;2022-07-29T12:59:18;26.10;99.90
28773;DHT22;15925;51.222;5.678;2022-07-29T13:01:45;26.10;99.90
28773;DHT22;15925;51.222;5.678;2022-07-29T13:04:33;26.10;99.90
28773;DHT22;15925;51.222;5.678;2022-07-29T13:07:06;26.20;99.90
28773;DHT22;15925;51.222;5.678;2022-07-29T13:10:14;26.10;99.90
28773;DHT22;15925;51.222;5.678;2022-07-29T13:15:32;26.00;99.90
28773;DHT22;15925;51.222;5.678;2022-07-29T13:17:58;26.00;99.90
28773;DHT22;15925;51.222;5.678;2022-07-29T13:20:26;26.30;99.90
28773;DHT22;15925;51.222;5.678;2022-07-29T13:22:58;26.20;99.90
28773;DHT22;15925;51.222;5.678;2022-07-29T13:25:28;26.40;99.90
28773;DHT22;15925;51.222;5.678;2022-07-29T13:27:54;26.30;99.90
28773;DHT22;15925;51.222;5.678;2022-07-29T13:30:21;26.40;99.90
28773;DHT22;15925;51.222;5.678;2022-07-29T13:32:47;26.40;99.90
28773;DHT22;15925;51.222;5.678;2022-07-29T13:35:13;26.40;99.90
28773;DHT22;15925;51.222;5.678;2022-07-29T13:37:39;26.40;99.90
28773;DHT22;15925;51.222;5.678;2022-07-29T13:40:09;26.40;99.90
28773;DHT22;15925;51.222;5.678;2022-07-29T13:42:35;26.40;99.90
28773;DHT22;15925;51.222;5.678;2022-07-29T13:45:03;26.50;99.90
28773;DHT22;15925;51.222;5.678;2022-07-29T13:47:29;26.60;99.90
28773;DHT22;15925;51.222;5.678;2022-07-29T13:49:55;26.50;99.90
28773;DHT22;15925;51.222;5.678;2022-07-29T13:52:21;26.40;99.90
28773;DHT22;15925;51.222;5.678;2022-07-29T13:54:46;26.40;99.90
28773;DHT22;15925;51.222;5.678;2022-07-29T13:57:13;26.40;99.90
28773;DHT22;15925;51.222;5.678;2022-07-29T13:59:42;26.40;99.90
28773;DHT22;15925;51.222;5.678;2022-07-29T14:02:10;26.40;99.90
28773;DHT22;15925;51.222;5.678;2022-07-29T14:04:37;26.50;99.90
28773;DHT22;15925;51.222;5.678;2022-07-29T14:07:03;26.50;99.90
28773;DHT22;15925;51.222;5.678;2022-07-29T14:09:30;26.50;99.90
28773;DHT22;15925;51.222;5.678;2022-07-29T14:11:57;26.50;99.90
28773;DHT22;15925;51.222;5.678;2022-07-29T14:14:22;26.50;99.90
28773;DHT22;15925;51.222;5.678;2022-07-29T14:16:48;26.60;99.90
28773;DHT22;15925;51.222;5.678;2022-07-29T14:19:14;26.60;99.90
28773;DHT22;15925;51.222;5.678;2022-07-29T14:21:40;26.60;99.90
28773;DHT22;15925;51.222;5.678;2022-07-29T14:24:06;26.70;99.80
28773;DHT22;15925;51.222;5.678;2022-07-29T14:26:32;26.80;99.80
28773;DHT22;15925;51.222;5.678;2022-07-29T14:28:58;26.90;99.80
28773;DHT22;15925;51.222;5.678;2022-07-29T14:31:24;26.90;99.50
28773;DHT22;15925;51.222;5.678;2022-07-29T14:33:49;26.80;99.30
28773;DHT22;15925;51.222;5.678;2022-07-29T14:36:15;26.80;99.10
28773;DHT22;15925;51.222;5.678;2022-07-29T14:38:41;26.90;98.90
28773;DHT22;15925;51.222;5.678;2022-07-29T14:41:07;26.90;98.80
28773;DHT22;15925;51.222;5.678;2022-07-29T14:43:34;26.90;98.70
28773;DHT22;15925;51.222;5.678;2022-07-29T14:46:00;26.90;98.70
28773;DHT22;15925;51.222;5.678;2022-07-29T14:48:26;26.90;98.60
28773;DHT22;15925;51.222;5.678;2022-07-29T14:50:52;26.80;98.50
28773;DHT22;15925;51.222;5.678;2022-07-29T14:53:18;26.80;98.40
28773;DHT22;15925;51.222;5.678;2022-07-29T14:55:44;26.70;98.50
28773;DHT22;15925;51.222;5.678;2022-07-29T14:58:10;26.70;98.60
28773;DHT22;15925;51.222;5.678;2022-07-29T15:00:36;26.60;98.50
28773;DHT22;15925;51.222;5.678;2022-07-29T15:03:03;26.70;98.20
28773;DHT22;15925;51.222;5.678;2022-07-29T15:05:32;26.80;98.20
28773;DHT22;15925;51.222;5.678;2022-07-29T15:07:59;26.70;98.00
28773;DHT22;15925;51.222;5.678;2022-07-29T15:10:25;26.50;98.10
28773;DHT22;15925;51.222;5.678;2022-07-29T15:12:54;26.40;98.00
28773;DHT22;15925;51.222;5.678;2022-07-29T15:15:20;26.50;97.90
28773;DHT22;15925;51.222;5.678;2022-07-29T15:17:46;26.50;97.70
28773;DHT22;15925;51.222;5.678;2022-07-29T15:20:12;26.40;97.70
28773;DHT22;15925;51.222;5.678;2022-07-29T15:22:39;26.50;97.50
28773;DHT22;15925;51.222;5.678;2022-07-29T15:25:07;26.60;95.50
28773;DHT22;15925;51.222;5.678;2022-07-29T15:27:32;26.70;97.30
28773;DHT22;15925;51.222;5.678;2022-07-29T15:29:58;26.40;97.20
28773;DHT22;15925;51.222;5.678;2022-07-29T15:32:24;26.60;97.20
28773;DHT22;15925;51.222;5.678;2022-07-29T15:34:50;26.60;96.90
28773;DHT22;15925;51.222;5.678;2022-07-29T15:37:16;26.70;96.90
28773;DHT22;15925;51.222;5.678;2022-07-29T15:39:42;26.70;96.80
28773;DHT22;15925;51.222;5.678;2022-07-29T15:42:07;26.70;96.80
28773;DHT22;15925;51.222;5.678;2022-07-29T15:44:34;26.60;96.70
28773;DHT22;15925;51.222;5.678;2022-07-29T15:47:00;26.70;96.50
28773;DHT22;15925;51.222;5.678;2022-07-29T15:49:29;26.70;96.50
28773;DHT22;15925;51.222;5.678;2022-07-29T15:52:03;26.50;96.40
28773;DHT22;15925;51.222;5.678;2022-07-29T15:54:36;26.50;96.40
28773;DHT22;15925;51.222;5.678;2022-07-29T15:57:03;26.50;96.30
28773;DHT22;15925;51.222;5.678;2022-07-29T15:59:30;26.40;96.40
28773;DHT22;15925;51.222;5.678;2022-07-29T16:01:56;26.50;96.30
28773;DHT22;15925;51.222;5.678;2022-07-29T16:04:22;26.60;96.10
28773;DHT22;15925;51.222;5.678;2022-07-29T16:06:48;26.60;96.10
28773;DHT22;15925;51.222;5.678;2022-07-29T16:09:15;26.50;96.00
28773;DHT22;15925;51.222;5.678;2022-07-29T16:11:42;26.40;96.30
28773;DHT22;15925;51.222;5.678;2022-07-29T16:14:11;26.40;96.30
28773;DHT22;15925;51.222;5.678;2022-07-29T16:16:37;26.40;96.30
28773;DHT22;15925;51.222;5.678;2022-07-29T16:19:03;26.40;96.30